createdAt,value
2023-05-22T00:00:58.564Z,96.58
2023-05-22T00:01:58.521Z,96.58
2023-05-22T00:02:58.631Z,96.48
2023-05-22T00:03:58.477Z,96.58
2023-05-22T00:04:58.561Z,96.93
2023-05-22T00:05:58.510Z,97.14
2023-05-22T00:06:58.581Z,97.34
2023-05-22T00:07:58.494Z,97.54
2023-05-22T00:08:58.492Z,97.08
2023-05-22T00:09:58.511Z,97.64
2023-05-22T00:10:59.019Z,97.54
2023-05-22T00:11:58.427Z,97.64
2023-05-22T00:13:01.365Z,97.64
2023-05-22T00:13:58.446Z,97.03
2023-05-22T00:14:58.421Z,97.03
2023-05-22T00:15:59.409Z,96.42
2023-05-22T00:16:58.594Z,96.63
2023-05-22T00:17:58.488Z,96.53
2023-05-22T00:18:58.795Z,96.53
2023-05-22T00:19:58.378Z,96.93
2023-05-22T00:20:58.439Z,96.88
2023-05-22T00:21:59.331Z,97.38
2023-05-22T00:22:58.381Z,97.69
2023-05-22T00:23:58.554Z,98.09
2023-05-22T00:24:58.335Z,97.58
2023-05-22T00:25:58.336Z,97.69
2023-05-22T00:26:58.341Z,97.89
2023-05-22T00:27:58.315Z,97.83
2023-05-22T00:28:58.318Z,98.03
2023-05-22T00:29:58.314Z,98.03
2023-05-22T00:30:58.275Z,98.85
2023-05-22T00:31:58.313Z,98.54
2023-05-22T00:32:58.447Z,98.74
2023-05-22T00:33:58.271Z,98.65
2023-05-22T00:34:58.275Z,98.85
2023-05-22T00:35:58.241Z,98.65
2023-05-22T00:36:58.252Z,98.85
2023-05-22T00:37:58.258Z,98.65
2023-05-22T00:38:58.216Z,98.54
2023-05-22T00:39:58.232Z,98.54
2023-05-22T00:40:58.243Z,98.65
2023-05-22T00:41:58.223Z,98.74
2023-05-22T00:42:58.256Z,99.25
2023-05-22T00:43:58.201Z,98.69
2023-05-22T00:44:58.191Z,98.85
2023-05-22T00:45:58.169Z,99.30
2023-05-22T00:46:58.224Z,99.19
2023-05-22T00:47:59.098Z,99.10
2023-05-22T00:48:58.178Z,98.95
2023-05-22T00:49:58.155Z,99.19
2023-05-22T00:50:58.144Z,98.59
2023-05-22T00:51:59.112Z,99.10
2023-05-22T00:52:58.131Z,99.19
2023-05-22T00:53:58.334Z,99.10
2023-05-22T00:54:58.125Z,99.10
2023-05-22T00:55:58.140Z,98.59
2023-05-22T00:56:58.101Z,98.99
2023-05-22T00:57:58.089Z,99.19
2023-05-22T00:58:58.082Z,99.19
2023-05-22T00:59:58.120Z,98.99
2023-05-22T01:00:58.097Z,99.10
2023-05-22T01:01:58.084Z,99.10
2023-05-22T01:02:58.113Z,99.10
2023-05-22T01:03:58.188Z,99.10
2023-05-22T01:04:58.191Z,99.19
2023-05-22T01:05:58.089Z,99.19
2023-05-22T01:06:58.047Z,98.90
2023-05-22T01:07:58.020Z,98.90
2023-05-22T01:08:58.024Z,98.59
2023-05-22T01:09:57.997Z,98.43
2023-05-22T01:10:57.992Z,98.94
2023-05-22T01:11:58.046Z,99.14
2023-05-22T01:12:57.963Z,99.55
2023-05-22T01:13:57.944Z,99.24
2023-05-22T01:14:57.954Z,99.44
2023-05-22T01:15:58.165Z,98.94
2023-05-22T01:16:57.983Z,99.24
2023-05-22T01:17:57.936Z,99.04
2023-05-22T01:18:57.930Z,98.99
2023-05-22T01:19:57.929Z,99.04
2023-05-22T01:20:57.912Z,99.44
2023-05-22T01:21:57.898Z,99.24
2023-05-22T01:22:57.957Z,98.99
2023-05-22T01:23:57.897Z,98.99
2023-05-22T01:24:57.881Z,99.24
2023-05-22T01:25:57.870Z,99.19
2023-05-22T01:26:57.845Z,98.99
2023-05-22T01:27:58.516Z,99.39
2023-05-22T01:28:57.832Z,99.99
2023-05-22T01:29:57.859Z,99.49
2023-05-22T01:30:58.043Z,98.99
2023-05-22T01:31:57.824Z,99.19
2023-05-22T01:32:57.951Z,99.39
2023-05-22T01:33:58.012Z,99.44
2023-05-22T01:34:57.817Z,99.54
2023-05-22T01:35:57.787Z,99.74
2023-05-22T01:36:58.513Z,99.85
2023-05-22T01:37:57.812Z,99.74
2023-05-22T01:38:57.786Z,99.85
2023-05-22T01:39:57.750Z,99.54
2023-05-22T01:40:57.784Z,99.54
2023-05-22T01:41:57.743Z,99.79
2023-05-22T01:42:57.731Z,99.95
2023-05-22T01:43:57.782Z,99.89
2023-05-22T01:44:57.706Z,99.74
2023-05-22T01:45:57.780Z,99.64
2023-05-22T01:46:57.694Z,99.99
2023-05-22T01:47:57.813Z,99.79
2023-05-22T01:48:57.657Z,99.79
2023-05-22T01:49:57.723Z,99.79
2023-05-22T01:50:57.899Z,99.99
2023-05-22T01:51:57.650Z,99.99
2023-05-22T01:52:57.647Z,99.99
2023-05-22T01:53:57.623Z,99.89
2023-05-22T01:54:57.652Z,99.89
2023-05-22T01:55:57.619Z,99.89
2023-05-22T01:56:57.647Z,99.79
2023-05-22T01:57:57.597Z,99.94
2023-05-22T01:58:57.600Z,99.99
2023-05-22T01:59:57.622Z,99.99
2023-05-22T02:00:57.677Z,99.99
2023-05-22T02:01:57.587Z,99.99
2023-05-22T02:02:57.687Z,99.99
2023-05-22T02:03:57.574Z,99.99
2023-05-22T02:04:57.556Z,99.99
2023-05-22T02:05:57.594Z,99.99
2023-05-22T02:06:57.561Z,99.99
2023-05-22T02:07:57.513Z,99.99
2023-05-22T02:08:57.548Z,99.99
2023-05-22T02:09:57.516Z,99.99
2023-05-22T02:10:57.548Z,99.99
2023-05-22T02:11:57.497Z,99.99
2023-05-22T02:12:58.516Z,99.63
2023-05-22T02:13:57.552Z,99.99
2023-05-22T02:14:57.482Z,99.99
2023-05-22T02:15:57.523Z,99.99
2023-05-22T02:16:57.572Z,99.99
2023-05-22T02:17:57.558Z,99.99
2023-05-22T02:18:57.505Z,99.99
2023-05-22T02:19:57.441Z,99.99
2023-05-22T02:20:57.451Z,99.99
2023-05-22T02:21:57.421Z,99.99
2023-05-22T02:22:57.388Z,99.99
2023-05-22T02:23:57.400Z,99.99
2023-05-22T02:24:57.409Z,99.99
2023-05-22T02:25:57.432Z,99.99
2023-05-22T02:26:57.349Z,99.99
2023-05-22T02:27:57.385Z,99.99
2023-05-22T02:28:58.361Z,99.99
2023-05-22T02:29:58.726Z,99.99
2023-05-22T02:30:57.400Z,99.99
2023-05-22T02:31:57.366Z,99.99
2023-05-22T02:32:57.379Z,99.99
2023-05-22T02:33:57.311Z,99.99
2023-05-22T02:34:57.323Z,99.99
2023-05-22T02:35:57.335Z,99.99
2023-05-22T02:36:57.285Z,99.99
2023-05-22T02:37:57.417Z,99.99
2023-05-22T02:38:57.319Z,99.99
2023-05-22T02:39:57.265Z,99.99
2023-05-22T02:40:57.274Z,99.99
2023-05-22T02:41:57.229Z,99.99
2023-05-22T02:42:58.108Z,99.99
2023-05-22T02:43:57.293Z,99.99
2023-05-22T02:44:57.274Z,99.99
2023-05-22T02:45:57.209Z,99.99
2023-05-22T02:46:57.433Z,99.99
2023-05-22T02:47:57.269Z,99.99
2023-05-22T02:48:58.052Z,99.99
2023-05-22T02:49:58.117Z,99.99
2023-05-22T02:50:57.192Z,99.99
2023-05-22T02:51:57.216Z,99.99
2023-05-22T02:52:57.222Z,99.99
2023-05-22T02:53:57.213Z,99.99
2023-05-22T02:54:57.225Z,99.99
2023-05-22T02:55:57.177Z,99.99
2023-05-22T02:56:57.198Z,99.99
2023-05-22T02:57:57.124Z,99.99
2023-05-22T02:58:57.130Z,99.99
2023-05-22T02:59:57.216Z,99.99
2023-05-22T03:00:57.119Z,99.99
2023-05-22T03:01:58.109Z,99.99
2023-05-22T03:02:57.236Z,99.99
2023-05-22T03:03:57.995Z,99.99
2023-05-22T03:04:57.117Z,99.99
2023-05-22T03:05:57.067Z,99.99
2023-05-22T03:06:57.090Z,99.99
2023-05-22T03:07:57.052Z,99.99
2023-05-22T03:08:57.051Z,99.99
2023-05-22T03:09:57.108Z,99.99
2023-05-22T03:10:58.038Z,99.99
2023-05-22T03:11:57.050Z,99.99
2023-05-22T03:12:58.021Z,99.99
2023-05-22T03:13:56.990Z,99.99
2023-05-22T03:14:58.031Z,99.99
2023-05-22T03:15:57.014Z,99.99
2023-05-22T03:16:56.988Z,99.99
2023-05-22T03:17:57.029Z,99.99
2023-05-22T03:18:56.974Z,99.99
2023-05-22T03:19:57.084Z,99.99
2023-05-22T03:20:56.982Z,99.99
2023-05-22T03:21:56.953Z,99.99
2023-05-22T03:22:56.945Z,99.99
2023-05-22T03:23:56.958Z,99.99
2023-05-22T03:24:56.983Z,99.99
2023-05-22T03:25:56.974Z,99.99
2023-05-22T03:26:56.981Z,99.99
2023-05-22T03:27:56.891Z,99.99
2023-05-22T03:28:56.963Z,99.99
2023-05-22T03:29:56.897Z,99.99
2023-05-22T03:30:56.901Z,99.99
2023-05-22T03:31:56.872Z,99.99
2023-05-22T03:32:57.856Z,99.99
2023-05-22T03:33:56.884Z,99.99
2023-05-22T03:34:56.866Z,99.99
2023-05-22T03:35:56.842Z,99.99
2023-05-22T03:36:56.827Z,99.99
2023-05-22T03:37:56.852Z,99.99
2023-05-22T03:38:56.824Z,99.99
2023-05-22T03:40:29.426Z,99.99
2023-05-22T03:40:56.822Z,99.99
2023-05-22T03:41:56.832Z,99.99
2023-05-22T03:42:56.790Z,99.99
2023-05-22T03:43:56.789Z,99.99
2023-05-22T03:44:56.739Z,99.99
2023-05-22T03:45:56.807Z,99.99
2023-05-22T03:46:56.769Z,99.99
2023-05-22T04:02:38.550Z,99.99
2023-05-22T04:03:38.405Z,99.99
2023-05-22T04:04:38.689Z,99.99
2023-05-22T04:05:38.443Z,99.99
2023-05-22T04:06:39.531Z,99.99
2023-05-22T04:07:39.565Z,99.99
2023-05-22T04:08:39.542Z,99.99
2023-05-22T04:09:39.473Z,99.99
2023-05-22T04:10:40.371Z,99.99
2023-05-22T04:11:39.494Z,99.99
2023-05-22T04:12:39.500Z,99.99
2023-05-22T04:13:39.487Z,99.78
2023-05-22T04:14:39.468Z,99.38
2023-05-22T04:15:39.513Z,99.78
2023-05-22T04:16:39.438Z,99.38
2023-05-22T04:17:39.422Z,99.68
2023-05-22T04:18:39.388Z,99.38
2023-05-22T04:19:39.420Z,99.74
2023-05-22T04:20:39.648Z,99.58
2023-05-22T04:21:39.418Z,99.43
2023-05-22T04:22:39.416Z,99.33
2023-05-22T04:23:39.394Z,99.13
2023-05-22T04:24:39.406Z,98.88
2023-05-22T04:25:39.350Z,98.88
2023-05-22T04:26:41.751Z,98.27
2023-05-22T04:27:39.351Z,97.96
2023-05-22T04:28:39.363Z,98.22
2023-05-22T04:29:39.403Z,97.81
2023-05-22T04:30:39.466Z,97.61
2023-05-22T04:31:39.413Z,97.61
2023-05-22T04:32:39.324Z,97.06
2023-05-22T04:33:39.300Z,97.16
2023-05-22T04:34:39.318Z,97.02
2023-05-22T04:36:12.591Z,96.71
2023-05-22T04:36:39.267Z,95.90
2023-05-22T04:37:39.306Z,96.15
2023-05-22T04:38:40.287Z,95.86
2023-05-22T04:39:39.235Z,95.71
2023-05-22T04:40:39.420Z,95.10
2023-05-22T04:41:39.287Z,94.75
2023-05-22T04:42:40.112Z,94.55
2023-05-22T04:43:40.128Z,93.79
2023-05-22T04:44:39.256Z,93.90
2023-05-22T04:45:39.191Z,92.99
2023-05-22T04:46:39.276Z,92.44
2023-05-22T04:47:39.235Z,92.03
2023-05-22T04:48:39.164Z,92.13
2023-05-22T04:49:39.205Z,91.83
2023-05-22T04:50:40.423Z,91.93
2023-05-22T04:51:39.174Z,91.63
2023-05-22T04:52:39.161Z,91.53
2023-05-22T04:53:39.128Z,91.58
2023-05-22T04:54:39.168Z,91.14
2023-05-22T04:55:39.186Z,90.69
2023-05-22T04:56:39.119Z,90.89
2023-05-22T04:57:39.136Z,90.89
2023-05-22T04:58:39.130Z,90.08
2023-05-22T04:59:39.225Z,90.94
2023-05-22T05:00:39.212Z,91.39
2023-05-22T05:01:39.175Z,90.85
2023-05-22T05:02:39.110Z,90.00
2023-05-22T05:03:39.231Z,89.50
2023-05-22T05:04:39.086Z,88.20
2023-05-22T05:05:39.033Z,87.25
2023-05-22T05:06:39.048Z,86.16
2023-05-22T05:07:39.061Z,84.77
2023-05-22T05:08:39.061Z,83.67
2023-05-22T05:09:38.998Z,83.33
2023-05-22T05:10:39.137Z,83.03
2023-05-22T05:11:39.010Z,82.92
2023-05-22T05:12:39.023Z,83.43
2023-05-22T05:13:39.046Z,84.17
2023-05-22T05:14:38.960Z,84.57
2023-05-22T05:15:38.999Z,83.91
2023-05-22T05:16:38.992Z,84.51
2023-05-22T05:17:38.997Z,84.35
2023-05-22T05:18:38.976Z,84.81
2023-05-22T05:19:39.043Z,84.51
2023-05-22T05:20:39.239Z,84.21
2023-05-22T05:21:38.957Z,84.07
2023-05-22T05:22:39.008Z,83.53
2023-05-22T05:23:38.927Z,83.83
2023-05-22T05:24:38.926Z,83.63
2023-05-22T05:25:38.923Z,83.63
2023-05-22T05:26:38.900Z,82.62
2023-05-22T05:27:38.858Z,83.23
2023-05-22T05:28:38.888Z,82.78
2023-05-22T05:29:38.909Z,83.63
2023-05-22T05:30:39.004Z,83.03
2023-05-22T05:31:38.913Z,83.57
2023-05-22T05:32:38.884Z,83.87
2023-05-22T05:33:38.878Z,84.91
2023-05-22T05:34:39.008Z,84.85
2023-05-22T05:35:40.195Z,86.26
2023-05-22T05:36:38.799Z,85.05
2023-05-22T05:37:38.797Z,84.25
2023-05-22T05:38:38.814Z,84.35
2023-05-22T05:39:38.840Z,85.36
2023-05-22T05:40:39.111Z,86.26
2023-05-22T05:41:39.673Z,84.67
2023-05-22T05:42:38.771Z,83.67
2023-05-22T05:43:38.807Z,83.23
2023-05-22T05:44:38.763Z,82.68
2023-05-22T05:45:38.764Z,82.08
2023-05-22T05:46:38.897Z,81.92
2023-05-22T05:47:38.887Z,82.48
2023-05-22T05:48:38.761Z,81.78
2023-05-22T05:49:39.713Z,81.64
2023-05-22T05:50:39.147Z,81.50
2023-05-22T05:51:38.681Z,81.50
2023-05-22T05:52:38.702Z,81.30
2023-05-22T05:53:38.683Z,80.96
2023-05-22T05:54:38.702Z,80.46
2023-05-22T05:55:38.676Z,80.70
2023-05-22T05:56:38.693Z,81.40
2023-05-22T05:57:39.681Z,80.80
2023-05-22T05:58:38.683Z,80.19
2023-05-22T05:59:38.666Z,81.00
2023-05-22T06:00:38.783Z,81.50
2023-05-22T06:01:38.832Z,81.50
2023-05-22T06:02:38.690Z,81.10
2023-05-22T06:03:38.740Z,80.60
2023-05-22T06:04:38.607Z,80.62
2023-05-22T06:05:38.634Z,79.32
2023-05-22T06:06:38.577Z,79.75
2023-05-22T06:07:38.605Z,79.55
2023-05-22T06:08:38.600Z,80.36
2023-05-22T06:09:38.567Z,81.26
2023-05-22T06:10:38.881Z,80.62
2023-05-22T06:11:38.581Z,79.28
2023-05-22T06:12:38.565Z,78.64
2023-05-22T06:13:38.588Z,78.14
2023-05-22T06:14:38.593Z,78.74
2023-05-22T06:15:38.570Z,78.04
2023-05-22T06:16:38.598Z,77.74
2023-05-22T06:17:38.554Z,79.08
2023-05-22T06:18:38.514Z,79.72
2023-05-22T06:19:38.523Z,79.02
2023-05-22T06:20:38.692Z,79.66
2023-05-22T06:21:38.491Z,80.86
2023-05-22T06:22:39.148Z,79.72
2023-05-22T06:23:38.466Z,79.18
2023-05-22T06:24:38.474Z,79.62
2023-05-22T06:25:38.475Z,79.62
2023-05-22T06:26:38.547Z,79.72
2023-05-22T06:27:38.455Z,79.32
2023-05-22T06:28:38.467Z,78.88
2023-05-22T06:29:38.454Z,78.78
2023-05-22T06:30:43.415Z,78.81
2023-05-22T06:31:40.472Z,79.28
2023-05-22T06:32:38.508Z,78.64
2023-05-22T06:33:38.458Z,78.34
2023-05-22T06:34:38.448Z,77.64
2023-05-22T06:35:38.409Z,78.14
2023-05-22T06:36:38.390Z,78.58
2023-05-22T06:37:38.397Z,78.24
2023-05-22T06:38:38.394Z,78.10
2023-05-22T06:39:38.379Z,78.10
2023-05-22T06:40:38.483Z,76.67
2023-05-22T06:41:38.371Z,76.60
2023-05-22T06:42:38.490Z,77.30
2023-05-22T06:43:38.438Z,77.30
2023-05-22T06:44:38.327Z,77.80
2023-05-22T06:45:38.331Z,77.26
2023-05-22T06:46:38.358Z,77.17
2023-05-22T06:47:38.303Z,77.26
2023-05-22T06:48:38.305Z,76.87
2023-05-22T06:49:38.300Z,77.97
2023-05-22T06:50:38.381Z,77.70
2023-05-22T06:51:38.269Z,78.60
2023-05-22T06:52:38.275Z,78.34
2023-05-22T06:53:38.271Z,78.24
2023-05-22T06:54:38.240Z,78.41
2023-05-22T06:55:38.226Z,78.34
2023-05-22T06:56:38.231Z,78.04
2023-05-22T06:57:38.228Z,77.94
2023-05-22T06:58:38.219Z,77.50
2023-05-22T06:59:38.225Z,77.40
2023-05-22T07:00:38.570Z,77.40
2023-05-22T07:01:38.216Z,77.17
2023-05-22T07:02:38.217Z,76.73
2023-05-22T07:03:38.170Z,75.89
2023-05-22T07:04:38.199Z,76.23
2023-05-22T07:05:38.240Z,76.33
2023-05-22T07:06:38.166Z,76.97
2023-05-22T07:07:38.151Z,76.43
2023-05-22T07:08:38.174Z,76.03
2023-05-22T07:09:38.148Z,76.03
2023-05-22T07:10:38.248Z,77.13
2023-05-22T07:11:38.109Z,76.23
2023-05-22T07:12:38.101Z,77.13
2023-05-22T07:13:38.132Z,76.29
2023-05-22T07:14:38.146Z,76.09
2023-05-22T07:15:38.118Z,75.09
2023-05-22T07:16:38.167Z,76.97
2023-05-22T07:17:38.098Z,76.43
2023-05-22T07:18:38.054Z,75.52
2023-05-22T07:19:38.093Z,76.29
2023-05-22T07:20:38.288Z,77.23
2023-05-22T07:21:38.041Z,77.19
2023-05-22T07:22:38.006Z,77.29
2023-05-22T07:23:38.023Z,75.79
2023-05-22T07:24:38.028Z,76.29
2023-05-22T07:25:38.061Z,76.39
2023-05-22T07:26:38.027Z,77.23
2023-05-22T07:27:37.999Z,76.26
2023-05-22T07:28:38.007Z,77.36
2023-05-22T07:29:37.986Z,77.36
2023-05-22T07:30:38.296Z,78.17
2023-05-22T07:31:38.082Z,77.36
2023-05-22T07:32:38.011Z,77.97
2023-05-22T07:33:37.940Z,77.09
2023-05-22T07:34:38.040Z,76.69
2023-05-22T07:35:37.897Z,76.39
2023-05-22T07:36:37.952Z,76.19
2023-05-22T07:37:37.959Z,76.49
2023-05-22T07:38:37.890Z,76.29
2023-05-22T07:39:37.911Z,75.96
2023-05-22T07:40:38.170Z,75.56
2023-05-22T07:41:37.908Z,75.85
2023-05-22T07:42:37.858Z,76.29
2023-05-22T07:43:37.885Z,75.56
2023-05-22T07:44:37.991Z,76.06
2023-05-22T07:45:37.974Z,75.28
2023-05-22T07:46:38.238Z,74.58
2023-05-22T07:47:37.936Z,76.15
2023-05-22T07:48:38.886Z,75.22
2023-05-22T07:49:37.812Z,74.92
2023-05-22T07:50:37.811Z,75.22
2023-05-22T07:51:37.787Z,74.72
2023-05-22T07:52:37.815Z,74.08
2023-05-22T07:53:37.781Z,74.35
2023-05-22T07:54:37.919Z,73.88
2023-05-22T07:55:37.957Z,74.22
2023-05-22T07:56:37.798Z,74.32
2023-05-22T07:57:37.786Z,74.12
2023-05-22T07:58:37.742Z,75.46
2023-05-22T07:59:37.815Z,74.02
2023-05-22T08:00:37.753Z,73.09
2023-05-22T08:01:37.752Z,73.55
2023-05-22T08:02:37.992Z,72.16
2023-05-22T08:03:37.904Z,72.68
2023-05-22T08:04:38.914Z,71.85
2023-05-22T08:05:37.728Z,70.65
2023-05-22T08:06:37.742Z,71.72
2023-05-22T08:07:37.691Z,72.22
2023-05-22T08:08:37.736Z,72.05
2023-05-22T08:09:37.730Z,73.15
2023-05-22T08:12:10.140Z,72.99
2023-05-22T08:12:37.708Z,73.82
2023-05-22T08:14:09.601Z,72.99
2023-05-22T08:15:11.817Z,72.78
2023-05-22T08:15:37.712Z,72.75
2023-05-22T08:16:37.865Z,72.92
2023-05-22T08:17:37.697Z,72.22
2023-05-22T08:18:37.941Z,73.05
2023-05-22T08:19:37.930Z,73.05
2023-05-22T08:20:37.961Z,73.15
2023-05-22T08:21:37.817Z,72.25
2023-05-22T08:22:37.673Z,71.55
2023-05-22T08:23:37.563Z,70.03
2023-05-22T08:24:37.633Z,70.82
2023-05-22T08:25:37.585Z,69.99
2023-05-22T08:26:37.686Z,70.19
2023-05-22T08:27:37.667Z,70.12
2023-05-22T08:28:37.555Z,70.62
2023-05-22T08:29:37.579Z,70.52
2023-05-22T08:30:37.829Z,70.12
2023-05-22T08:31:37.533Z,69.59
2023-05-22T08:32:37.658Z,68.76
2023-05-22T08:33:39.205Z,68.76
2023-05-22T08:34:37.742Z,68.43
2023-05-22T08:35:37.488Z,68.13
2023-05-22T08:36:37.499Z,67.70
2023-05-22T08:37:37.483Z,68.57
2023-05-22T08:38:37.541Z,67.94
2023-05-22T08:39:37.448Z,66.74
2023-05-22T08:40:37.676Z,67.04
2023-05-22T08:41:37.427Z,67.64
2023-05-22T08:42:37.456Z,64.70
2023-05-22T08:43:37.501Z,64.63
2023-05-22T08:44:37.435Z,62.92
2023-05-22T08:45:37.472Z,62.39
2023-05-22T08:46:37.454Z,62.73
2023-05-22T08:47:37.503Z,61.02
2023-05-22T08:48:37.386Z,61.91
2023-05-22T08:49:37.385Z,62.53
2023-05-22T08:50:37.883Z,62.01
2023-05-22T08:51:37.413Z,60.62
2023-05-22T08:52:37.376Z,62.01
2023-05-22T08:53:37.386Z,61.11
2023-05-22T08:54:37.362Z,62.62
2023-05-22T08:55:37.401Z,63.08
2023-05-22T08:56:39.837Z,63.34
2023-05-22T08:57:38.351Z,65.99
2023-05-22T08:58:37.313Z,66.02
2023-05-22T08:59:37.337Z,66.61
2023-05-22T09:00:38.469Z,64.37
2023-05-22T09:01:37.351Z,62.95
2023-05-22T09:02:37.366Z,63.09
2023-05-22T09:03:38.336Z,62.99
2023-05-22T09:04:37.410Z,62.39
2023-05-22T09:05:37.392Z,62.42
2023-05-22T09:06:37.440Z,64.50
2023-05-22T09:07:37.314Z,64.11
2023-05-22T09:08:37.350Z,66.28
2023-05-22T09:09:37.368Z,65.02
2023-05-22T09:10:37.457Z,64.40
2023-05-22T09:11:37.238Z,65.86
2023-05-22T09:12:37.249Z,64.40
2023-05-22T09:14:09.254Z,63.48
2023-05-22T09:14:38.201Z,62.79
2023-05-22T09:15:37.215Z,63.25
2023-05-22T09:16:37.207Z,62.50
2023-05-22T09:17:37.249Z,60.76
2023-05-22T09:18:37.148Z,59.38
2023-05-22T09:19:38.210Z,60.00
2023-05-22T09:20:37.324Z,59.47
2023-05-22T09:21:37.149Z,59.34
2023-05-22T09:22:37.158Z,59.31
2023-05-22T09:23:37.128Z,60.39
2023-05-22T09:24:37.113Z,61.21
2023-05-22T09:25:37.189Z,59.93
2023-05-22T09:26:37.143Z,60.85
2023-05-22T09:27:37.090Z,60.82
2023-05-22T09:28:37.121Z,60.97
2023-05-22T09:29:37.173Z,61.64
2023-05-22T09:30:37.180Z,61.74
2023-05-22T09:31:37.705Z,62.85
2023-05-22T09:32:37.119Z,62.30
2023-05-22T09:33:37.639Z,62.27
2023-05-22T09:34:37.107Z,61.05
2023-05-22T09:35:37.094Z,57.42
2023-05-22T09:36:37.067Z,56.92
2023-05-22T09:37:37.094Z,56.23
2023-05-22T09:38:37.106Z,56.48
2023-05-22T09:39:37.034Z,56.58
2023-05-22T09:40:37.217Z,56.88
2023-05-22T09:41:37.018Z,55.94
2023-05-22T09:42:37.011Z,55.22
2023-05-22T09:43:37.012Z,55.35
2023-05-22T09:44:37.012Z,55.51
2023-05-22T09:45:37.034Z,53.81
2023-05-22T09:46:37.047Z,54.01
2023-05-22T09:47:36.993Z,51.54
2023-05-22T09:48:36.995Z,52.11
2023-05-22T09:49:36.949Z,53.17
2023-05-22T09:50:37.007Z,52.75
2023-05-22T09:51:37.063Z,51.10
2023-05-22T09:52:36.937Z,49.48
2023-05-22T09:53:38.018Z,49.68
2023-05-22T09:54:37.084Z,51.37
2023-05-22T09:55:36.938Z,51.69
2023-05-22T09:56:39.976Z,51.47
2023-05-22T09:57:37.921Z,51.32
2023-05-22T09:58:36.909Z,51.81
2023-05-22T09:59:36.917Z,52.63
2023-05-22T10:00:36.917Z,51.35
2023-05-22T10:01:36.968Z,52.23
2023-05-22T10:02:36.928Z,51.32
2023-05-22T10:03:36.881Z,52.78
2023-05-22T10:04:36.918Z,53.99
2023-05-22T10:05:36.894Z,52.80
2023-05-22T10:06:36.876Z,54.51
2023-05-22T10:07:36.847Z,53.39
2023-05-22T10:08:36.862Z,52.93
2023-05-22T10:09:36.839Z,54.76
2023-05-22T10:10:36.858Z,55.58
2023-05-22T10:11:36.889Z,57.41
2023-05-22T10:12:36.849Z,58.16
2023-05-22T10:13:36.816Z,58.36
2023-05-22T10:14:36.816Z,57.51
2023-05-22T10:15:36.868Z,55.97
2023-05-22T10:16:36.854Z,56.34
2023-05-22T10:17:36.815Z,57.33
2023-05-22T10:18:36.789Z,55.45
2023-05-22T10:19:38.593Z,55.97
2023-05-22T10:20:36.959Z,57.41
2023-05-22T10:21:36.743Z,58.43
2023-05-22T10:22:36.761Z,58.80
2023-05-22T10:23:36.731Z,60.67
2023-05-22T10:24:36.712Z,60.64
2023-05-22T10:25:36.714Z,60.86
2023-05-22T10:26:37.426Z,60.67
2023-05-22T10:27:36.693Z,60.47
2023-05-22T10:28:36.694Z,61.32
2023-05-22T10:29:36.747Z,62.41
2023-05-22T10:30:36.729Z,61.10
2023-05-22T10:31:37.964Z,59.88
2023-05-22T10:32:36.688Z,59.45
2023-05-22T10:33:36.724Z,60.14
2023-05-22T10:34:36.640Z,59.48
2023-05-22T10:35:36.668Z,60.07
2023-05-22T10:36:36.676Z,60.07
2023-05-22T10:37:36.642Z,59.51
2023-05-22T10:38:36.617Z,61.62
2023-05-22T10:39:36.637Z,60.70
2023-05-22T10:40:37.362Z,60.60
2023-05-22T10:41:36.660Z,59.67
2023-05-22T10:42:36.664Z,59.67
2023-05-22T10:43:36.612Z,58.78
2023-05-22T10:44:36.557Z,58.65
2023-05-22T10:45:36.756Z,58.56
2023-05-22T10:46:36.579Z,59.58
2023-05-22T10:47:36.584Z,58.48
2023-05-22T10:48:36.538Z,58.09
2023-05-22T10:49:36.525Z,57.50
2023-05-22T10:50:36.560Z,58.78
2023-05-22T10:51:36.549Z,58.78
2023-05-22T10:52:36.531Z,60.30
2023-05-22T10:53:36.545Z,59.97
2023-05-22T10:54:36.523Z,59.08
2023-05-22T10:55:36.546Z,59.67
2023-05-22T10:56:36.526Z,60.17
2023-05-22T10:57:36.461Z,59.58
2023-05-22T10:58:36.538Z,59.65
2023-05-22T10:59:36.455Z,59.55
2023-05-22T11:00:36.522Z,60.27
2023-05-22T11:01:37.515Z,59.45
2023-05-22T11:02:36.476Z,59.55
2023-05-22T11:03:36.499Z,59.78
2023-05-22T11:04:36.434Z,59.94
2023-05-22T11:05:36.402Z,59.81
2023-05-22T11:06:36.484Z,59.52
2023-05-22T11:07:36.424Z,57.61
2023-05-22T11:08:36.363Z,57.48
2023-05-22T11:09:36.513Z,57.06
2023-05-22T11:10:36.417Z,58.34
2023-05-22T11:11:36.365Z,58.05
2023-05-22T11:12:36.400Z,59.56
2023-05-22T11:13:36.478Z,59.56
2023-05-22T11:14:36.456Z,60.16
2023-05-22T11:15:36.357Z,60.13
2023-05-22T11:16:36.398Z,58.15
2023-05-22T11:17:36.547Z,58.57
2023-05-22T11:18:36.331Z,58.80
2023-05-22T11:19:36.364Z,59.79
2023-05-22T11:20:36.325Z,59.39
2023-05-22T11:21:36.311Z,59.52
2023-05-22T11:22:36.306Z,58.28
2023-05-22T11:23:36.290Z,57.73
2023-05-22T11:24:36.300Z,59.50
2023-05-22T11:25:36.332Z,59.44
2023-05-22T11:26:36.248Z,58.54
2023-05-22T11:27:36.239Z,57.78
2023-05-22T11:28:36.279Z,59.56
2023-05-22T11:29:36.214Z,59.44
2023-05-22T11:30:36.994Z,58.29
2023-05-22T11:31:36.348Z,56.33
2023-05-22T11:32:36.261Z,55.54
2023-05-22T11:33:36.200Z,55.83
2023-05-22T11:34:36.256Z,56.53
2023-05-22T11:35:36.242Z,55.83
2023-05-22T11:36:36.207Z,55.12
2023-05-22T11:37:36.182Z,55.16
2023-05-22T11:38:36.185Z,53.78
2023-05-22T11:39:36.190Z,54.50
2023-05-22T11:40:36.232Z,54.53
2023-05-22T11:41:36.185Z,56.33
2023-05-22T11:42:36.172Z,56.41
2023-05-22T11:43:36.139Z,56.58
2023-05-22T11:44:36.115Z,56.73
2023-05-22T11:45:36.118Z,56.18
2023-05-22T11:46:36.290Z,54.26
2023-05-22T11:47:36.231Z,55.02
2023-05-22T11:48:36.116Z,55.16
2023-05-22T11:49:36.095Z,53.99
2023-05-22T11:50:42.178Z,55.09
2023-05-22T11:51:38.154Z,54.30
2023-05-22T11:52:36.077Z,54.60
2023-05-22T11:53:36.074Z,55.16
2023-05-22T11:54:38.621Z,53.91
2023-05-22T11:55:37.859Z,53.91
2023-05-22T11:56:36.192Z,54.11
2023-05-22T11:57:36.915Z,53.78
2023-05-22T11:58:36.034Z,53.66
2023-05-22T11:59:36.107Z,52.72
2023-05-22T12:00:36.034Z,51.32
2023-05-22T12:01:36.007Z,51.57
2023-05-22T12:02:36.241Z,53.71
2023-05-22T12:03:36.243Z,54.28
2023-05-22T12:04:36.062Z,52.85
2023-05-22T12:05:36.001Z,52.92
2023-05-22T12:06:36.076Z,52.40
2023-05-22T12:07:36.020Z,51.81
2023-05-22T12:08:35.984Z,51.10
2023-05-22T12:09:35.949Z,51.50
2023-05-22T12:10:36.117Z,52.89
2023-05-22T12:11:35.924Z,52.33
2023-05-22T12:12:35.975Z,54.90
2023-05-22T12:13:36.042Z,56.41
2023-05-22T12:14:35.910Z,55.33
2023-05-22T12:15:35.951Z,56.09
2023-05-22T12:16:36.052Z,54.23
2023-05-22T12:17:35.926Z,54.33
2023-05-22T12:18:35.975Z,54.21
2023-05-22T12:19:35.989Z,53.66
2023-05-22T12:20:35.969Z,52.23
2023-05-22T12:21:35.902Z,51.25
2023-05-22T12:22:35.858Z,53.05
2023-05-22T12:23:36.854Z,53.02
2023-05-22T12:24:35.877Z,51.47
2023-05-22T12:25:35.821Z,52.36
2023-05-22T12:26:35.837Z,51.37
2023-05-22T12:27:37.276Z,52.26
2023-05-22T12:28:35.819Z,52.55
2023-05-22T12:29:35.813Z,51.74
2023-05-22T12:30:35.816Z,52.72
2023-05-22T12:31:35.874Z,51.57
2023-05-22T12:32:36.790Z,52.92
2023-05-22T12:34:08.440Z,51.89
2023-05-22T12:35:07.722Z,51.25
2023-05-22T12:36:07.713Z,51.86
2023-05-22T12:37:08.377Z,52.11
2023-05-22T12:38:08.405Z,50.61
2023-05-22T12:39:08.441Z,51.37
2023-05-22T12:40:08.472Z,50.68
2023-05-22T12:41:07.681Z,52.50
2023-05-22T12:41:35.757Z,51.74
2023-05-22T12:42:35.725Z,51.25
2023-05-22T12:43:35.769Z,52.56
2023-05-22T12:44:35.715Z,51.42
2023-05-22T12:45:35.689Z,51.30
2023-05-22T12:46:35.790Z,51.15
2023-05-22T12:47:35.712Z,51.52
2023-05-22T12:48:35.676Z,49.75
2023-05-22T12:49:35.756Z,49.46
2023-05-22T12:50:35.705Z,49.04
2023-05-22T12:51:35.717Z,49.28
2023-05-22T12:52:35.661Z,51.00
2023-05-22T12:53:37.135Z,51.89
2023-05-22T12:54:35.679Z,51.37
2023-05-22T12:55:35.645Z,51.76
2023-05-22T12:56:35.647Z,51.05
2023-05-22T12:57:35.663Z,51.47
2023-05-22T12:58:35.625Z,51.94
2023-05-22T12:59:35.620Z,52.56
2023-05-22T13:00:35.628Z,52.43
2023-05-22T13:01:35.674Z,51.92
2023-05-22T13:02:35.635Z,52.40
2023-05-22T13:03:35.708Z,51.20
2023-05-22T13:04:35.640Z,50.88
2023-05-22T13:05:35.639Z,50.88
2023-05-22T13:06:35.581Z,51.25
2023-05-22T13:07:35.606Z,50.49
2023-05-22T13:08:35.675Z,50.09